Altamont, New York
Current Conditions -  °F | °C
As of 6:51 PM on Saturday 22 Nov 2014 (Local Time) from KALB Reporting Station
Overcast Overcast  
Wind Chill:   Ceiling: 3600
Heat Index:   Visibility: 10mi
Dew Point: -10°   Wind: 10mph
Humidity: 36%   Direction: 190°S
Pressure: 30.09"   Gusts: 21mph
Location:  42.7°N, 74.03°W
Report Text: KALB 222351Z 19009G18KT 10SM BKN036 OVC050 04/M10 A3009 RMK AO2 RAE20 SLP193 P0000 60000 T00391100 10039 20017 56008
Loading
Personal Weather Stations






























Interactive Weather Map New forecast layout! Learn more

10-Day Weather Forecast

Advertisements
Track Severe Weather on mobile